createdAt,value
2023-03-11T00:02:22.888Z,99.9
2023-03-11T00:05:10.847Z,99.9
2023-03-11T00:07:58.488Z,99.9
2023-03-11T00:10:46.388Z,99.9
2023-03-11T00:13:34.140Z,99.9
2023-03-11T00:16:21.835Z,99.9
2023-03-11T00:19:09.570Z,99.9
2023-03-11T00:21:57.231Z,99.9
2023-03-11T00:24:44.869Z,99.9
2023-03-11T00:27:32.623Z,99.9
2023-03-11T00:30:20.430Z,99.9
2023-03-11T00:33:08.310Z,99.9
2023-03-11T00:35:56.072Z,99.9
2023-03-11T00:38:44.130Z,99.9
2023-03-11T00:41:32.174Z,99.9
2023-03-11T00:44:19.992Z,99.9
2023-03-11T00:47:07.966Z,99.9
2023-03-11T00:49:55.777Z,99.9
2023-03-11T00:52:43.462Z,99.9
2023-03-11T00:55:31.198Z,99.9
2023-03-11T00:58:18.922Z,99.9
2023-03-11T01:01:06.925Z,99.9
2023-03-11T01:03:54.849Z,99.9
2023-03-11T01:06:46.071Z,99.9
2023-03-11T01:09:33.947Z,99.9
2023-03-11T01:12:21.590Z,99.9
2023-03-11T01:15:09.363Z,99.9
2023-03-11T01:17:57.172Z,99.9
2023-03-11T01:20:44.974Z,99.9
2023-03-11T01:23:32.809Z,99.9
2023-03-11T01:26:20.699Z,99.9
2023-03-11T01:29:08.580Z,99.9
2023-03-11T01:31:56.725Z,99.9
2023-03-11T01:34:44.507Z,99.9
2023-03-11T01:37:32.544Z,99.9
2023-03-11T01:40:20.193Z,99.9
2023-03-11T01:43:08.093Z,99.9
2023-03-11T01:45:55.785Z,99.9
2023-03-11T01:48:43.585Z,99.9
2023-03-11T01:51:31.395Z,99.9
2023-03-11T01:54:19.291Z,99.9
2023-03-11T01:57:06.922Z,99.9
2023-03-11T01:59:54.806Z,99.9
2023-03-11T02:02:42.812Z,99.9
2023-03-11T02:05:30.677Z,99.9
2023-03-11T02:08:18.485Z,99.9
2023-03-11T02:11:06.361Z,99.9
2023-03-11T02:13:54.134Z,99.9
2023-03-11T02:16:42.122Z,99.9
2023-03-11T02:19:29.802Z,99.9
2023-03-11T02:22:17.648Z,99.9
2023-03-11T02:25:05.579Z,99.9
2023-03-11T02:27:53.552Z,99.9
2023-03-11T02:30:41.348Z,99.9
2023-03-11T02:33:29.205Z,99.9
2023-03-11T02:36:17.123Z,99.9
2023-03-11T02:39:04.856Z,99.9
2023-03-11T02:41:52.664Z,99.9
2023-03-11T02:44:40.470Z,99.9
2023-03-11T02:47:28.250Z,99.9
2023-03-11T02:50:16.082Z,99.9
2023-03-11T02:53:03.814Z,99.9
2023-03-11T02:55:51.594Z,99.9
2023-03-11T02:58:39.434Z,99.9
2023-03-11T03:01:27.264Z,99.9
2023-03-11T03:04:15.326Z,99.9
2023-03-11T03:07:03.195Z,99.9
2023-03-11T03:09:50.922Z,99.9
2023-03-11T03:12:38.655Z,99.9
2023-03-11T03:15:26.411Z,99.9
2023-03-11T03:18:14.226Z,99.9
2023-03-11T03:21:01.895Z,99.9
2023-03-11T03:23:49.790Z,99.9
2023-03-11T03:26:37.519Z,99.9
2023-03-11T03:29:25.329Z,99.9
2023-03-11T03:32:13.269Z,99.9
2023-03-11T03:35:01.125Z,99.9
2023-03-11T03:37:49.076Z,99.9
2023-03-11T03:40:36.944Z,99.9
2023-03-11T03:43:24.738Z,99.9
2023-03-11T03:46:12.680Z,99.9
2023-03-11T03:49:00.578Z,99.9
2023-03-11T03:51:48.334Z,99.9
2023-03-11T03:54:36.147Z,99.9
2023-03-11T03:57:23.920Z,99.9
2023-03-11T04:00:11.585Z,99.9
2023-03-11T04:02:59.692Z,99.9
2023-03-11T04:05:47.639Z,99.9
2023-03-11T04:08:35.602Z,99.9
2023-03-11T04:11:23.380Z,99.9
2023-03-11T04:14:11.190Z,99.9
2023-03-11T04:16:59.185Z,99.9
2023-03-11T04:19:47.122Z,99.9
2023-03-11T04:22:34.957Z,99.9
2023-03-11T04:25:22.810Z,99.9
2023-03-11T04:28:10.546Z,99.9
2023-03-11T04:30:58.574Z,99.9
2023-03-11T04:33:46.617Z,99.9
2023-03-11T04:36:34.452Z,99.9
2023-03-11T04:39:22.375Z,99.9
2023-03-11T04:42:10.114Z,99.9
2023-03-11T04:44:57.848Z,99.9
2023-03-11T04:47:45.785Z,99.9
2023-03-11T04:50:33.464Z,99.9
2023-03-11T04:53:21.298Z,99.9
2023-03-11T04:56:09.107Z,99.9
2023-03-11T04:58:56.863Z,99.9
2023-03-11T05:01:44.836Z,99.9
2023-03-11T05:04:32.923Z,99.9
2023-03-11T05:07:20.831Z,99.9
2023-03-11T05:10:08.498Z,99.9
2023-03-11T05:12:56.418Z,99.9
2023-03-11T05:15:44.384Z,99.9
2023-03-11T05:18:32.162Z,99.9
2023-03-11T05:21:20.020Z,99.9
2023-03-11T05:24:07.732Z,99.9
2023-03-11T05:26:55.669Z,99.9
2023-03-11T05:29:43.546Z,99.9
2023-03-11T05:32:31.671Z,99.9
2023-03-11T05:35:19.427Z,99.9
2023-03-11T05:38:07.314Z,99.9
2023-03-11T05:40:55.051Z,99.9
2023-03-11T05:43:42.856Z,99.9
2023-03-11T05:46:30.862Z,99.9
2023-03-11T05:49:18.777Z,99.9
2023-03-11T05:52:06.590Z,99.9
2023-03-11T05:54:54.505Z,99.9
2023-03-11T05:57:42.310Z,99.9
2023-03-11T06:00:30.051Z,99.9
2023-03-11T06:03:17.955Z,99.9
2023-03-11T06:06:05.832Z,99.9
2023-03-11T06:08:53.567Z,99.9
2023-03-11T06:11:41.425Z,99.9
2023-03-11T06:14:29.160Z,99.9
2023-03-11T06:17:16.836Z,99.9
2023-03-11T06:20:04.879Z,99.9
2023-03-11T06:22:53.068Z,99.9
2023-03-11T06:25:40.711Z,99.9
2023-03-11T06:28:28.635Z,99.9
2023-03-11T06:31:16.447Z,99.9
2023-03-11T06:34:04.462Z,99.9
2023-03-11T06:36:52.472Z,99.9
2023-03-11T06:39:40.384Z,99.9
2023-03-11T06:42:28.306Z,99.9
2023-03-11T06:45:16.128Z,99.9
2023-03-11T06:48:03.782Z,99.9
2023-03-11T06:50:51.569Z,99.9
2023-03-11T06:53:39.524Z,99.9
2023-03-11T06:56:27.485Z,99.9
2023-03-11T06:59:15.429Z,99.9
2023-03-11T07:02:03.363Z,99.9
2023-03-11T07:04:51.308Z,99.5
2023-03-11T07:07:39.271Z,97.6
2023-03-11T07:10:27.079Z,94.5
2023-03-11T07:13:15.538Z,93.7
2023-03-11T07:16:03.258Z,92
2023-03-11T07:18:51.037Z,89.7
2023-03-11T07:21:38.745Z,86.3
2023-03-11T07:24:26.605Z,87.7
2023-03-11T07:27:14.443Z,88.7
2023-03-11T07:30:03.105Z,85.6
2023-03-11T07:32:51.087Z,84.7
2023-03-11T07:35:38.934Z,83.2
2023-03-11T07:38:26.607Z,84.4
2023-03-11T07:41:14.553Z,83.5
2023-03-11T07:44:02.501Z,80.4
2023-03-11T07:46:50.512Z,77.4
2023-03-11T07:49:38.345Z,78.1
2023-03-11T07:52:26.200Z,77.9
2023-03-11T07:55:13.928Z,77.8
2023-03-11T07:58:01.893Z,77.9
2023-03-11T08:00:49.819Z,76.1
2023-03-11T08:03:37.694Z,72.1
2023-03-11T08:06:25.360Z,68.8
2023-03-11T08:09:13.205Z,70.8
2023-03-11T08:12:00.917Z,72.8
2023-03-11T08:14:48.660Z,73
2023-03-11T08:17:36.443Z,72.5
2023-03-11T08:20:24.209Z,71.1
2023-03-11T08:23:26.070Z,68.1
2023-03-11T08:26:13.765Z,68.1
2023-03-11T08:29:01.482Z,71.7
2023-03-11T08:31:49.473Z,72
2023-03-11T08:34:37.386Z,66.5
2023-03-11T08:37:25.298Z,68.2
2023-03-11T08:40:13.127Z,68.2
2023-03-11T08:43:00.736Z,68.7
2023-03-11T08:45:48.593Z,66.4
2023-03-11T08:48:36.587Z,65.2
2023-03-11T08:51:24.451Z,60.8
2023-03-11T08:54:12.405Z,63.3
2023-03-11T08:57:00.187Z,61.4
2023-03-11T08:59:48.022Z,62
2023-03-11T09:02:35.991Z,65.7
2023-03-11T09:05:24.095Z,65.7
2023-03-11T09:08:11.904Z,64.7
2023-03-11T09:10:59.662Z,62.3
2023-03-11T09:13:47.398Z,61
2023-03-11T09:16:35.329Z,60.7
2023-03-11T09:19:23.115Z,59.1
2023-03-11T09:22:10.758Z,59.8
2023-03-11T09:24:58.480Z,59.7
2023-03-11T09:27:46.418Z,59.5
2023-03-11T09:30:34.164Z,60.4
2023-03-11T09:33:21.986Z,58.5
2023-03-11T09:36:09.817Z,53.4
2023-03-11T09:38:57.635Z,53.1
2023-03-11T09:41:59.138Z,49.5
2023-03-11T09:44:47.193Z,48.3
2023-03-11T09:47:34.870Z,53.9
2023-03-11T09:50:22.731Z,59.8
2023-03-11T09:53:10.464Z,60
2023-03-11T09:55:58.168Z,60.2
2023-03-11T09:58:45.959Z,58.4
2023-03-11T10:01:33.748Z,59.7
2023-03-11T10:04:21.416Z,61.1
2023-03-11T10:07:09.147Z,62.4
2023-03-11T10:09:56.804Z,59.5
2023-03-11T10:12:44.630Z,56.5
2023-03-11T10:15:32.419Z,61.1
2023-03-11T10:18:20.260Z,63.5
2023-03-11T10:21:07.962Z,62.9
2023-03-11T10:23:55.905Z,60.7
2023-03-11T10:26:43.526Z,57.9
2023-03-11T10:29:31.359Z,56
2023-03-11T10:32:19.343Z,49.8
2023-03-11T10:35:07.112Z,47.2
2023-03-11T10:38:01.777Z,45.7
2023-03-11T10:40:52.088Z,49.3
2023-03-11T10:43:39.772Z,50.7
2023-03-11T10:46:27.512Z,49.8
2023-03-11T10:49:15.304Z,52.8
2023-03-11T10:52:03.228Z,55.9
2023-03-11T10:54:51.035Z,55.9
2023-03-11T10:57:38.847Z,57
2023-03-11T11:00:26.528Z,58.1
2023-03-11T11:03:14.130Z,52.5
2023-03-11T11:06:01.911Z,52.4
2023-03-11T11:08:49.753Z,55.1
2023-03-11T11:11:37.380Z,53.7
2023-03-11T11:14:25.049Z,49.2
2023-03-11T11:17:12.842Z,47.6
2023-03-11T11:20:00.607Z,49.3
2023-03-11T11:22:48.279Z,50.1
2023-03-11T11:25:36.049Z,49.7
2023-03-11T11:28:23.639Z,50.7
2023-03-11T11:31:11.528Z,52.4
2023-03-11T11:33:59.289Z,55.1
2023-03-11T11:36:47.020Z,57.4
2023-03-11T11:39:34.720Z,55.9
2023-03-11T11:42:22.594Z,51.2
2023-03-11T11:45:10.254Z,48
2023-03-11T11:47:57.856Z,47.6
2023-03-11T11:50:45.650Z,47
2023-03-11T11:53:33.417Z,49.5
2023-03-11T11:56:21.108Z,48.2
2023-03-11T11:59:08.919Z,51.2
2023-03-11T12:01:56.528Z,50.5
2023-03-11T12:04:44.203Z,50.1
2023-03-11T12:07:31.924Z,47.1
2023-03-11T12:10:26.264Z,46.7
2023-03-11T12:13:14.060Z,50.5
2023-03-11T12:16:01.837Z,44.6
2023-03-11T12:18:49.604Z,46.4
2023-03-11T12:21:37.331Z,47
2023-03-11T12:24:25.006Z,47.8
2023-03-11T12:27:12.792Z,47.9
2023-03-11T12:30:00.658Z,48.1
2023-03-11T12:32:48.632Z,50
2023-03-11T12:35:36.569Z,51.2
2023-03-11T12:38:24.551Z,49.8
2023-03-11T12:41:12.194Z,52
2023-03-11T12:43:59.952Z,54.7
2023-03-11T12:46:47.891Z,51.1
2023-03-11T12:49:35.828Z,52
2023-03-11T12:52:23.512Z,51.9
2023-03-11T12:55:11.342Z,51.6
2023-03-11T12:57:59.128Z,53.6
2023-03-11T13:00:46.857Z,50.3
2023-03-11T13:03:34.775Z,49.6
2023-03-11T13:06:22.478Z,52.8
2023-03-11T13:09:10.208Z,53.7
2023-03-11T13:11:57.989Z,53
2023-03-11T13:14:45.599Z,54.9
2023-03-11T13:17:33.251Z,52
2023-03-11T13:20:21.007Z,52
2023-03-11T13:23:08.665Z,47.6
2023-03-11T13:25:56.344Z,49.5
2023-03-11T13:28:44.113Z,48.6
2023-03-11T13:31:31.969Z,46.2
2023-03-11T13:34:19.644Z,43.4
2023-03-11T13:37:07.405Z,42.2
2023-03-11T13:39:55.159Z,46
2023-03-11T13:42:42.801Z,47.4
2023-03-11T13:45:30.744Z,47
2023-03-11T13:48:18.340Z,44
2023-03-11T13:51:06.113Z,45.5
2023-03-11T13:53:53.899Z,41.7
2023-03-11T13:56:41.606Z,42.6
2023-03-11T13:59:29.179Z,40.2
2023-03-11T14:02:16.810Z,39.1
2023-03-11T14:05:04.495Z,43.1
2023-03-11T14:07:52.173Z,40.4
2023-03-11T14:10:39.943Z,39.6
2023-03-11T14:13:27.483Z,37.1
2023-03-11T14:16:15.196Z,39.2
2023-03-11T14:19:02.949Z,39.7
2023-03-11T14:21:50.745Z,39.6
2023-03-11T14:24:38.518Z,41.7
2023-03-11T14:27:26.269Z,44.5
2023-03-11T14:30:14.022Z,43.2
2023-03-11T14:33:01.817Z,41.1
2023-03-11T14:35:49.587Z,40
2023-03-11T14:38:37.167Z,42.3
2023-03-11T14:41:24.847Z,40.7
2023-03-11T14:44:12.495Z,39.2
2023-03-11T14:47:00.152Z,41.2
2023-03-11T14:49:47.785Z,41.5
2023-03-11T14:52:35.494Z,42.8
2023-03-11T14:55:23.148Z,42.5
2023-03-11T14:58:10.977Z,38.7
2023-03-11T15:00:58.832Z,39.1
2023-03-11T15:03:46.604Z,41.2
2023-03-11T15:06:34.145Z,42.3
2023-03-11T15:09:21.773Z,42.2
2023-03-11T15:12:09.280Z,41.4
2023-03-11T15:14:56.965Z,40
2023-03-11T15:18:01.514Z,40.9
2023-03-11T15:20:49.115Z,41.9
2023-03-11T15:23:36.732Z,40.9
2023-03-11T15:26:24.423Z,41.5
2023-03-11T15:29:12.077Z,42.8
2023-03-11T15:31:59.960Z,42.2
2023-03-11T15:34:47.893Z,40.7
2023-03-11T15:37:35.663Z,41.9
2023-03-11T15:40:42.594Z,44
2023-03-11T15:43:32.195Z,44.3
2023-03-11T15:46:19.996Z,43.9
2023-03-11T15:49:07.659Z,44.6
2023-03-11T15:51:55.414Z,44.7
2023-03-11T15:54:55.649Z,44.2
2023-03-11T15:57:43.666Z,44.4
2023-03-11T16:00:31.409Z,44.8
2023-03-11T16:03:18.970Z,45.2
2023-03-11T16:06:06.875Z,44.7
2023-03-11T16:08:54.731Z,44.3
2023-03-11T16:11:42.542Z,45
2023-03-11T16:14:30.197Z,44.9
2023-03-11T16:17:18.010Z,45.5
2023-03-11T16:20:05.587Z,46.5
2023-03-11T16:22:53.233Z,46.1
2023-03-11T16:25:41.022Z,46.6
2023-03-11T16:28:28.701Z,46.1
2023-03-11T16:31:16.627Z,46.1
2023-03-11T16:34:04.346Z,45.9
2023-03-11T16:36:51.992Z,46.2
2023-03-11T16:39:39.814Z,46.4
2023-03-11T16:42:27.554Z,46
2023-03-11T16:45:15.406Z,46.6
2023-03-11T16:48:03.113Z,47.1
2023-03-11T16:50:50.796Z,47.9
2023-03-11T16:53:38.369Z,47.1
2023-03-11T16:56:26.104Z,46.7
2023-03-11T16:59:13.818Z,46.5
2023-03-11T17:02:01.736Z,46.3
2023-03-11T17:04:49.675Z,47.5
2023-03-11T17:07:40.084Z,47.7
2023-03-11T17:10:27.902Z,47.6
2023-03-11T17:13:19.312Z,47.4
2023-03-11T17:16:07.337Z,47.7
2023-03-11T17:18:55.345Z,48
2023-03-11T17:21:43.334Z,48.2
2023-03-11T17:24:31.109Z,48.7
2023-03-11T17:27:19.040Z,48.9
2023-03-11T17:30:06.932Z,49.3
2023-03-11T17:32:54.924Z,49.6
2023-03-11T17:35:43.140Z,49.9
2023-03-11T17:38:31.004Z,50.2
2023-03-11T17:41:18.889Z,50.7
2023-03-11T17:44:06.614Z,51.1
2023-03-11T17:46:54.675Z,51.4
2023-03-11T17:49:42.464Z,51.7
2023-03-11T17:52:30.456Z,51.8
2023-03-11T17:55:18.262Z,52.1
2023-03-11T17:58:13.774Z,52.3
2023-03-11T18:01:01.505Z,52.5
2023-03-11T18:03:49.532Z,52.6
2023-03-11T18:06:37.493Z,52.4
2023-03-11T18:09:25.467Z,52.7
2023-03-11T18:12:13.195Z,53
2023-03-11T18:15:01.035Z,53.4
2023-03-11T18:17:48.831Z,53.8
2023-03-11T18:20:36.746Z,54.1
2023-03-11T18:23:24.605Z,54.6
2023-03-11T18:26:12.462Z,54.9
2023-03-11T18:29:00.336Z,55.2
2023-03-11T18:31:48.444Z,55.4
2023-03-11T18:34:36.385Z,55.7
2023-03-11T18:37:24.268Z,55.7
2023-03-11T18:40:12.174Z,55.6
2023-03-11T18:43:00.123Z,55.8
2023-03-11T18:45:48.028Z,56
2023-03-11T18:48:35.906Z,55.8
2023-03-11T18:51:23.705Z,56.2
2023-03-11T18:54:11.680Z,56.6
2023-03-11T18:56:59.596Z,57.1
2023-03-11T18:59:47.296Z,57.2
2023-03-11T19:02:35.186Z,57.4
2023-03-11T19:05:23.172Z,57.9
2023-03-11T19:08:11.068Z,58.2
2023-03-11T19:10:58.807Z,58.7
2023-03-11T19:13:48.319Z,58.9
2023-03-11T19:16:36.363Z,59
2023-03-11T19:19:24.090Z,59.3
2023-03-11T19:22:11.871Z,59.8
2023-03-11T19:24:59.686Z,60.1
2023-03-11T19:27:47.491Z,60.4
2023-03-11T19:30:35.550Z,60.6
2023-03-11T19:33:23.468Z,60.8
2023-03-11T19:36:11.362Z,60.9
2023-03-11T19:38:59.100Z,61.1
2023-03-11T19:41:46.832Z,61.2
2023-03-11T19:44:34.762Z,61.3
2023-03-11T19:47:22.420Z,61.5
2023-03-11T19:50:10.190Z,61.7
2023-03-11T19:52:57.954Z,61.9
2023-03-11T19:55:45.782Z,62.1
2023-03-11T19:58:33.513Z,62.2
2023-03-11T20:01:21.262Z,62.5
2023-03-11T20:04:09.219Z,62.6
2023-03-11T20:06:57.121Z,62.6
2023-03-11T20:09:44.992Z,62.5
2023-03-11T20:12:32.828Z,62.4
2023-03-11T20:15:20.624Z,62.1
2023-03-11T20:18:08.503Z,62.5
2023-03-11T20:20:56.267Z,62.7
2023-03-11T20:23:44.134Z,63
2023-03-11T20:26:31.776Z,63.4
2023-03-11T20:29:19.542Z,63.8
2023-03-11T20:32:07.427Z,64
2023-03-11T20:34:55.064Z,64
2023-03-11T20:37:43.192Z,64.2
2023-03-11T20:40:31.150Z,64.5
2023-03-11T20:43:18.961Z,64.4
2023-03-11T20:46:06.911Z,64.4
2023-03-11T20:48:54.729Z,64.7
2023-03-11T20:51:42.465Z,64.8
2023-03-11T20:54:30.248Z,64.8
2023-03-11T20:57:18.156Z,64.9
2023-03-11T21:00:05.867Z,65
2023-03-11T21:02:54.167Z,65
2023-03-11T21:05:42.075Z,65.1
2023-03-11T21:08:29.925Z,65.3
2023-03-11T21:11:17.976Z,65.5
2023-03-11T21:14:05.870Z,65.6
2023-03-11T21:16:53.876Z,65.9
2023-03-11T21:19:42.041Z,66
2023-03-11T21:22:30.059Z,66
2023-03-11T21:25:17.993Z,66.2
2023-03-11T21:28:05.723Z,66.6
2023-03-11T21:30:53.593Z,66.8
2023-03-11T21:33:41.984Z,66.8
2023-03-11T21:36:30.152Z,66.9
2023-03-11T21:39:18.105Z,67
2023-03-11T21:42:06.169Z,67.2
2023-03-11T21:44:54.033Z,67.3
2023-03-11T21:47:42.035Z,67.5
2023-03-11T21:50:29.909Z,67.6
2023-03-11T21:53:17.717Z,67.6
2023-03-11T21:56:05.597Z,67.8
2023-03-11T21:58:53.657Z,68
2023-03-11T22:01:42.023Z,68.2
2023-03-11T22:04:30.200Z,68.3
2023-03-11T22:07:17.885Z,68.3
2023-03-11T22:10:05.722Z,68.3
2023-03-11T22:12:53.477Z,68.3
2023-03-11T22:15:41.430Z,68.5
2023-03-11T22:18:29.624Z,68.6
2023-03-11T22:21:17.800Z,68.6
2023-03-11T22:24:05.563Z,68.8
2023-03-11T22:26:53.254Z,69
2023-03-11T22:29:42.194Z,69
2023-03-11T22:32:30.210Z,69
2023-03-11T22:35:18.096Z,69
2023-03-11T22:38:05.725Z,68.9
2023-03-11T22:40:53.430Z,68.8
2023-03-11T22:43:41.290Z,68.8
2023-03-11T22:46:30.923Z,69
2023-03-11T22:49:18.576Z,69
2023-03-11T22:52:06.284Z,68.9
2023-03-11T22:54:54.353Z,69
2023-03-11T22:57:42.099Z,69.2
2023-03-11T23:00:30.165Z,69.3
2023-03-11T23:03:17.946Z,69.5
2023-03-11T23:06:05.710Z,69.7
2023-03-11T23:08:53.631Z,69.9
2023-03-11T23:11:41.452Z,70
2023-03-11T23:14:45.370Z,70.2
2023-03-11T23:17:33.334Z,70.5
2023-03-11T23:20:20.927Z,70.7
2023-03-11T23:23:08.588Z,71.3
2023-03-11T23:25:56.270Z,71.9
2023-03-11T23:28:44.047Z,72.6
2023-03-11T23:31:31.712Z,72.3
2023-03-11T23:34:19.397Z,72.3
2023-03-11T23:37:07.029Z,72.1
2023-03-11T23:39:54.822Z,72.1
2023-03-11T23:42:54.186Z,72.2
2023-03-11T23:45:42.036Z,72.2
2023-03-11T23:48:29.724Z,72.3
2023-03-11T23:51:17.296Z,72.4
2023-03-11T23:54:04.948Z,72.4
2023-03-11T23:56:52.657Z,72.4
2023-03-11T23:59:40.384Z,72.5
